sensor_id;sensor_type;location;lat;lon;timestamp;pressure;altitude;pressure_sealevel;temperature;humidity
36600;BME280;35385;55.668;37.508;2024-01-07T00:00:47;99418.41;;;-16.88;100.00
36600;BME280;35385;55.668;37.508;2024-01-07T00:01:48;99419.44;;;-16.79;100.00
36600;BME280;35385;55.668;37.508;2024-01-07T00:02:49;99411.91;;;-16.73;100.00
36600;BME280;35385;55.668;37.508;2024-01-07T00:03:50;99417.09;;;-16.69;100.00
36600;BME280;35385;55.668;37.508;2024-01-07T00:04:50;99415.34;;;-16.71;100.00
36600;BME280;35385;55.668;37.508;2024-01-07T00:05:51;99420.38;;;-16.76;100.00
36600;BME280;35385;55.668;37.508;2024-01-07T00:06:51;99416.09;;;-16.77;100.00
36600;BME280;35385;55.668;37.508;2024-01-07T00:07:52;99422.81;;;-16.80;100.00
36600;BME280;35385;55.668;37.508;2024-01-07T00:08:52;99432.56;;;-17.00;100.00
36600;BME280;35385;55.668;37.508;2024-01-07T00:09:53;99428.13;;;-17.09;100.00
36600;BME280;35385;55.668;37.508;2024-01-07T00:10:54;99431.59;;;-17.07;100.00
36600;BME280;35385;55.668;37.508;2024-01-07T00:11:54;99434.38;;;-16.96;100.00
36600;BME280;35385;55.668;37.508;2024-01-07T00:12:54;99435.97;;;-17.03;100.00
36600;BME280;35385;55.668;37.508;2024-01-07T00:13:55;99431.94;;;-16.92;100.00
36600;BME280;35385;55.668;37.508;2024-01-07T00:14:55;99435.38;;;-16.91;100.00
36600;BME280;35385;55.668;37.508;2024-01-07T00:15:56;99443.91;;;-16.91;100.00
36600;BME280;35385;55.668;37.508;2024-01-07T00:16:56;99443.13;;;-16.87;100.00
36600;BME280;35385;55.668;37.508;2024-01-07T00:17:56;99443.81;;;-16.94;100.00
36600;BME280;35385;55.668;37.508;2024-01-07T00:18:57;99452.34;;;-16.93;100.00
36600;BME280;35385;55.668;37.508;2024-01-07T00:19:57;99447.19;;;-16.95;100.00
36600;BME280;35385;55.668;37.508;2024-01-07T00:20:58;99442.09;;;-16.95;100.00
36600;BME280;35385;55.668;37.508;2024-01-07T00:21:58;99447.91;;;-17.00;100.00
36600;BME280;35385;55.668;37.508;2024-01-07T00:22:59;99449.72;;;-16.96;100.00
36600;BME280;35385;55.668;37.508;2024-01-07T00:23:59;99449.88;;;-16.90;100.00
36600;BME280;35385;55.668;37.508;2024-01-07T00:24:59;99461.88;;;-16.86;100.00
36600;BME280;35385;55.668;37.508;2024-01-07T00:26:00;99447.41;;;-16.86;100.00
36600;BME280;35385;55.668;37.508;2024-01-07T00:27:02;99459.06;;;-16.97;100.00
36600;BME280;35385;55.668;37.508;2024-01-07T00:28:02;99457.25;;;-17.01;100.00
36600;BME280;35385;55.668;37.508;2024-01-07T00:29:03;99448.38;;;-17.18;100.00
36600;BME280;35385;55.668;37.508;2024-01-07T00:30:03;99458.53;;;-17.20;100.00
36600;BME280;35385;55.668;37.508;2024-01-07T00:31:04;99452.66;;;-17.15;100.00
36600;BME280;35385;55.668;37.508;2024-01-07T00:32:04;99462.16;;;-17.10;100.00
36600;BME280;35385;55.668;37.508;2024-01-07T00:33:05;99463.25;;;-17.00;100.00
36600;BME280;35385;55.668;37.508;2024-01-07T00:34:05;99461.41;;;-17.06;100.00
36600;BME280;35385;55.668;37.508;2024-01-07T00:35:06;99464.56;;;-17.16;100.00
36600;BME280;35385;55.668;37.508;2024-01-07T00:36:06;99471.09;;;-17.27;100.00
36600;BME280;35385;55.668;37.508;2024-01-07T00:37:07;99465.25;;;-17.23;100.00
36600;BME280;35385;55.668;37.508;2024-01-07T00:38:07;99474.72;;;-17.19;100.00
36600;BME280;35385;55.668;37.508;2024-01-07T00:39:07;99469.63;;;-17.19;100.00
36600;BME280;35385;55.668;37.508;2024-01-07T00:40:08;99469.63;;;-17.19;100.00
36600;BME280;35385;55.668;37.508;2024-01-07T00:41:08;99467.13;;;-17.16;100.00
36600;BME280;35385;55.668;37.508;2024-01-07T00:42:09;99478.47;;;-17.05;100.00
36600;BME280;35385;55.668;37.508;2024-01-07T00:43:09;99476.66;;;-17.09;100.00
36600;BME280;35385;55.668;37.508;2024-01-07T00:44:10;99478.09;;;-17.20;100.00
36600;BME280;35385;55.668;37.508;2024-01-07T00:45:10;99487.72;;;-17.10;100.00
36600;BME280;35385;55.668;37.508;2024-01-07T00:46:11;99488.63;;;-17.08;100.00
36600;BME280;35385;55.668;37.508;2024-01-07T00:47:11;99482.44;;;-17.16;100.00
36600;BME280;35385;55.668;37.508;2024-01-07T00:48:13;99487.03;;;-17.37;100.00
36600;BME280;35385;55.668;37.508;2024-01-07T00:49:14;99484.59;;;-17.33;100.00
36600;BME280;35385;55.668;37.508;2024-01-07T00:50:14;99487.16;;;-17.33;100.00
36600;BME280;35385;55.668;37.508;2024-01-07T00:51:15;99484.34;;;-17.42;100.00
36600;BME280;35385;55.668;37.508;2024-01-07T00:52:15;99487.06;;;-17.36;100.00
36600;BME280;35385;55.668;37.508;2024-01-07T00:53:15;99483.75;;;-17.33;100.00
36600;BME280;35385;55.668;37.508;2024-01-07T00:54:16;99489.72;;;-17.33;100.00
36600;BME280;35385;55.668;37.508;2024-01-07T00:55:16;99495.81;;;-17.26;100.00
36600;BME280;35385;55.668;37.508;2024-01-07T00:56:18;99490.50;;;-17.35;100.00
36600;BME280;35385;55.668;37.508;2024-01-07T00:57:18;99488.50;;;-17.47;100.00
36600;BME280;35385;55.668;37.508;2024-01-07T00:58:19;99491.84;;;-17.49;100.00
36600;BME280;35385;55.668;37.508;2024-01-07T00:59:19;99493.69;;;-17.42;100.00
36600;BME280;35385;55.668;37.508;2024-01-07T01:00:20;99492.00;;;-17.42;100.00
36600;BME280;35385;55.668;37.508;2024-01-07T01:01:20;99497.03;;;-17.45;100.00
36600;BME280;35385;55.668;37.508;2024-01-07T01:02:20;99503.19;;;-17.38;100.00
36600;BME280;35385;55.668;37.508;2024-01-07T01:03:21;99503.25;;;-17.35;100.00
36600;BME280;35385;55.668;37.508;2024-01-07T01:04:22;99504.91;;;-17.37;100.00
36600;BME280;35385;55.668;37.508;2024-01-07T01:05:22;99505.78;;;-17.37;100.00
36600;BME280;35385;55.668;37.508;2024-01-07T01:06:23;99509.22;;;-17.35;100.00
36600;BME280;35385;55.668;37.508;2024-01-07T01:07:23;99516.78;;;-17.39;100.00
36600;BME280;35385;55.668;37.508;2024-01-07T01:08:23;99516.84;;;-17.36;100.00
36600;BME280;35385;55.668;37.508;2024-01-07T01:09:24;99515.94;;;-17.38;100.00
36600;BME280;35385;55.668;37.508;2024-01-07T01:10:24;99516.91;;;-17.35;100.00
36600;BME280;35385;55.668;37.508;2024-01-07T01:11:25;99520.41;;;-17.30;100.00
36600;BME280;35385;55.668;37.508;2024-01-07T01:12:26;99522.94;;;-17.31;100.00
36600;BME280;35385;55.668;37.508;2024-01-07T01:13:26;99529.72;;;-17.33;100.00
36600;BME280;35385;55.668;37.508;2024-01-07T01:14:26;99534.00;;;-17.32;100.00
36600;BME280;35385;55.668;37.508;2024-01-07T01:15:27;99531.28;;;-17.38;100.00
36600;BME280;35385;55.668;37.508;2024-01-07T01:16:27;99535.47;;;-17.40;100.00
36600;BME280;35385;55.668;37.508;2024-01-07T01:17:28;99532.91;;;-17.40;100.00
36600;BME280;35385;55.668;37.508;2024-01-07T01:18:28;99541.53;;;-17.37;100.00
36600;BME280;35385;55.668;37.508;2024-01-07T01:19:29;99546.34;;;-17.47;100.00
36600;BME280;35385;55.668;37.508;2024-01-07T01:20:29;99546.28;;;-17.50;100.00
36600;BME280;35385;55.668;37.508;2024-01-07T01:21:29;99548.66;;;-17.57;100.00
36600;BME280;35385;55.668;37.508;2024-01-07T01:22:30;99543.38;;;-17.63;100.00
36600;BME280;35385;55.668;37.508;2024-01-07T01:23:30;99551.06;;;-17.63;100.00
36600;BME280;35385;55.668;37.508;2024-01-07T01:24:31;99553.00;;;-17.52;100.00
36600;BME280;35385;55.668;37.508;2024-01-07T01:25:31;99547.81;;;-17.56;100.00
36600;BME280;35385;55.668;37.508;2024-01-07T01:26:31;99550.41;;;-17.54;100.00
36600;BME280;35385;55.668;37.508;2024-01-07T01:27:32;99554.94;;;-17.45;100.00
36600;BME280;35385;55.668;37.508;2024-01-07T01:28:32;99553.28;;;-17.42;100.00
36600;BME280;35385;55.668;37.508;2024-01-07T01:29:32;99554.66;;;-17.55;100.00
36600;BME280;35385;55.668;37.508;2024-01-07T01:30:33;99562.38;;;-17.53;100.00
36600;BME280;35385;55.668;37.508;2024-01-07T01:31:33;99561.97;;;-17.68;100.00
36600;BME280;35385;55.668;37.508;2024-01-07T01:32:34;99546.66;;;-17.68;100.00
36600;BME280;35385;55.668;37.508;2024-01-07T01:33:34;99556.28;;;-17.89;100.00
36600;BME280;35385;55.668;37.508;2024-01-07T01:34:34;99557.53;;;-17.75;100.00
36600;BME280;35385;55.668;37.508;2024-01-07T01:35:35;99557.59;;;-17.72;100.00
36600;BME280;35385;55.668;37.508;2024-01-07T01:36:35;99562.84;;;-17.68;100.00
36600;BME280;35385;55.668;37.508;2024-01-07T01:37:36;99569.88;;;-17.58;100.00
36600;BME280;35385;55.668;37.508;2024-01-07T01:38:36;99564.00;;;-17.55;100.00
36600;BME280;35385;55.668;37.508;2024-01-07T01:39:39;99564.03;;;-17.53;100.00
36600;BME280;35385;55.668;37.508;2024-01-07T01:40:39;99576.81;;;-17.85;100.00
36600;BME280;35385;55.668;37.508;2024-01-07T01:41:40;99572.47;;;-17.87;100.00
36600;BME280;35385;55.668;37.508;2024-01-07T01:42:42;99571.94;;;-17.77;100.00
36600;BME280;35385;55.668;37.508;2024-01-07T01:43:43;99581.28;;;-17.78;100.00
36600;BME280;35385;55.668;37.508;2024-01-07T01:44:43;99587.31;;;-18.04;100.00
36600;BME280;35385;55.668;37.508;2024-01-07T01:45:44;99589.22;;;-17.97;100.00
36600;BME280;35385;55.668;37.508;2024-01-07T01:46:45;99583.94;;;-18.03;100.00
36600;BME280;35385;55.668;37.508;2024-01-07T01:47:45;99586.72;;;-17.96;100.00
36600;BME280;35385;55.668;37.508;2024-01-07T01:48:46;99577.72;;;-17.83;100.00
36600;BME280;35385;55.668;37.508;2024-01-07T01:49:47;99589.91;;;-17.73;100.00
36600;BME280;35385;55.668;37.508;2024-01-07T01:50:47;99591.59;;;-17.73;100.00
36600;BME280;35385;55.668;37.508;2024-01-07T01:51:48;99591.72;;;-17.69;100.00
36600;BME280;35385;55.668;37.508;2024-01-07T01:52:50;99598.88;;;-17.56;100.00
36600;BME280;35385;55.668;37.508;2024-01-07T01:53:51;99601.31;;;-17.60;100.00
36600;BME280;35385;55.668;37.508;2024-01-07T01:54:51;99605.53;;;-17.92;100.00
36600;BME280;35385;55.668;37.508;2024-01-07T01:55:52;99607.53;;;-18.10;100.00
36600;BME280;35385;55.668;37.508;2024-01-07T01:56:53;99605.44;;;-17.95;100.00
36600;BME280;35385;55.668;37.508;2024-01-07T01:57:54;99611.00;;;-18.08;100.00
36600;BME280;35385;55.668;37.508;2024-01-07T01:58:56;99615.53;;;-18.27;100.00
36600;BME280;35385;55.668;37.508;2024-01-07T01:59:56;99615.25;;;-18.36;100.00
36600;BME280;35385;55.668;37.508;2024-01-07T02:01:03;99622.97;;;-18.34;100.00
36600;BME280;35385;55.668;37.508;2024-01-07T02:02:04;99621.34;;;-18.59;100.00
36600;BME280;35385;55.668;37.508;2024-01-07T02:03:04;99624.06;;;-18.53;100.00
36600;BME280;35385;55.668;37.508;2024-01-07T02:04:05;99628.19;;;-18.30;100.00
36600;BME280;35385;55.668;37.508;2024-01-07T02:05:05;99624.38;;;-18.15;100.00
36600;BME280;35385;55.668;37.508;2024-01-07T02:06:06;99627.31;;;-18.03;100.00
36600;BME280;35385;55.668;37.508;2024-01-07T02:07:06;99629.41;;;-18.18;100.00
36600;BME280;35385;55.668;37.508;2024-01-07T02:08:07;99620.72;;;-18.23;100.00
36600;BME280;35385;55.668;37.508;2024-01-07T02:09:07;99623.66;;;-18.11;100.00
36600;BME280;35385;55.668;37.508;2024-01-07T02:10:08;99627.31;;;-18.03;100.00
36600;BME280;35385;55.668;37.508;2024-01-07T02:11:19;99633.19;;;-18.06;100.00
36600;BME280;35385;55.668;37.508;2024-01-07T02:12:19;99631.41;;;-18.08;100.00
36600;BME280;35385;55.668;37.508;2024-01-07T02:13:20;99635.53;;;-18.12;100.00
36600;BME280;35385;55.668;37.508;2024-01-07T02:14:21;99630.63;;;-18.06;100.00
36600;BME280;35385;55.668;37.508;2024-01-07T02:15:21;99636.66;;;-18.02;100.00
36600;BME280;35385;55.668;37.508;2024-01-07T02:16:21;99638.25;;;-18.07;100.00
36600;BME280;35385;55.668;37.508;2024-01-07T02:17:22;99643.34;;;-18.07;100.00
36600;BME280;35385;55.668;37.508;2024-01-07T02:18:22;99639.22;;;-18.02;100.00
36600;BME280;35385;55.668;37.508;2024-01-07T02:19:23;99645.06;;;-18.06;100.00
36600;BME280;35385;55.668;37.508;2024-01-07T02:20:23;99638.34;;;-18.03;100.00
36600;BME280;35385;55.668;37.508;2024-01-07T02:21:24;99641.78;;;-18.02;100.00
36600;BME280;35385;55.668;37.508;2024-01-07T02:22:24;99641.19;;;-17.94;100.00
36600;BME280;35385;55.668;37.508;2024-01-07T02:23:25;99642.88;;;-17.94;100.00
36600;BME280;35385;55.668;37.508;2024-01-07T02:24:25;99639.97;;;-18.06;100.00
36600;BME280;35385;55.668;37.508;2024-01-07T02:25:25;99646.22;;;-18.23;100.00
36600;BME280;35385;55.668;37.508;2024-01-07T02:26:26;99641.91;;;-18.26;100.00
36600;BME280;35385;55.668;37.508;2024-01-07T02:27:26;99641.25;;;-18.47;100.00
36600;BME280;35385;55.668;37.508;2024-01-07T02:28:27;99637.72;;;-18.51;100.00
36600;BME280;35385;55.668;37.508;2024-01-07T02:29:28;99637.38;;;-18.35;100.00
36600;BME280;35385;55.668;37.508;2024-01-07T02:30:29;99642.75;;;-18.25;100.00
36600;BME280;35385;55.668;37.508;2024-01-07T02:31:29;99641.28;;;-18.19;100.00
36600;BME280;35385;55.668;37.508;2024-01-07T02:32:30;99635.59;;;-18.10;100.00
36600;BME280;35385;55.668;37.508;2024-01-07T02:33:34;99633.03;;;-18.10;100.00
36600;BME280;35385;55.668;37.508;2024-01-07T02:34:34;99638.09;;;-18.12;100.00
36600;BME280;35385;55.668;37.508;2024-01-07T02:35:35;99639.66;;;-18.15;100.00
36600;BME280;35385;55.668;37.508;2024-01-07T02:36:35;99640.13;;;-18.29;100.00
36600;BME280;35385;55.668;37.508;2024-01-07T02:37:36;99639.03;;;-18.37;100.00
36600;BME280;35385;55.668;37.508;2024-01-07T02:38:36;99636.38;;;-18.40;100.00
36600;BME280;35385;55.668;37.508;2024-01-07T02:39:37;99632.09;;;-18.41;100.00
36600;BME280;35385;55.668;37.508;2024-01-07T02:40:37;99638.91;;;-18.40;100.00
36600;BME280;35385;55.668;37.508;2024-01-07T02:41:37;99636.75;;;-18.54;100.00
36600;BME280;35385;55.668;37.508;2024-01-07T02:42:38;99637.72;;;-18.51;100.00
36600;BME280;35385;55.668;37.508;2024-01-07T02:43:38;99638.53;;;-18.52;100.00
36600;BME280;35385;55.668;37.508;2024-01-07T02:44:39;99638.63;;;-18.49;100.00
36600;BME280;35385;55.668;37.508;2024-01-07T02:45:39;99639.25;;;-18.56;100.00
36600;BME280;35385;55.668;37.508;2024-01-07T02:46:40;99646.88;;;-18.56;100.00
36600;BME280;35385;55.668;37.508;2024-01-07T02:47:40;99645.16;;;-18.57;100.00
36600;BME280;35385;55.668;37.508;2024-01-07T02:48:40;99640.06;;;-18.57;100.00
36600;BME280;35385;55.668;37.508;2024-01-07T02:49:41;99642.09;;;-18.47;100.00
36600;BME280;35385;55.668;37.508;2024-01-07T02:50:41;99645.25;;;-18.54;100.00
36600;BME280;35385;55.668;37.508;2024-01-07T02:51:41;99639.91;;;-18.63;100.00
36600;BME280;35385;55.668;37.508;2024-01-07T02:52:44;99639.59;;;-18.72;100.00
36600;BME280;35385;55.668;37.508;2024-01-07T02:53:44;99650.53;;;-18.75;100.00
36600;BME280;35385;55.668;37.508;2024-01-07T02:54:45;99649.91;;;-18.69;100.00
36600;BME280;35385;55.668;37.508;2024-01-07T02:55:45;99644.16;;;-18.63;100.00
36600;BME280;35385;55.668;37.508;2024-01-07T02:56:45;99652.34;;;-18.72;100.00
36600;BME280;35385;55.668;37.508;2024-01-07T02:57:46;99652.84;;;-18.82;100.00
36600;BME280;35385;55.668;37.508;2024-01-07T02:58:46;99661.53;;;-18.77;100.00
36600;BME280;35385;55.668;37.508;2024-01-07T02:59:47;99659.91;;;-18.75;100.00
36600;BME280;35385;55.668;37.508;2024-01-07T03:00:48;99659.97;;;-18.72;100.00
36600;BME280;35385;55.668;37.508;2024-01-07T03:01:48;99666.00;;;-18.70;100.00
36600;BME280;35385;55.668;37.508;2024-01-07T03:02:49;99665.19;;;-18.69;100.00
36600;BME280;35385;55.668;37.508;2024-01-07T03:03:49;99669.97;;;-18.78;100.00
36600;BME280;35385;55.668;37.508;2024-01-07T03:04:50;99669.94;;;-19.04;100.00
36600;BME280;35385;55.668;37.508;2024-01-07T03:05:50;99670.66;;;-19.08;100.00
36600;BME280;35385;55.668;37.508;2024-01-07T03:06:51;99667.41;;;-19.04;100.00
36600;BME280;35385;55.668;37.508;2024-01-07T03:07:51;99671.38;;;-19.12;100.00
36600;BME280;35385;55.668;37.508;2024-01-07T03:08:52;99669.63;;;-19.13;100.00
36600;BME280;35385;55.668;37.508;2024-01-07T03:09:52;99675.75;;;-19.08;100.00
36600;BME280;35385;55.668;37.508;2024-01-07T03:10:52;99682.59;;;-19.07;100.00
36600;BME280;35385;55.668;37.508;2024-01-07T03:11:53;99678.91;;;-18.89;100.00
36600;BME280;35385;55.668;37.508;2024-01-07T03:12:54;99682.44;;;-18.86;100.00
36600;BME280;35385;55.668;37.508;2024-01-07T03:13:55;99683.31;;;-18.85;100.00
36600;BME280;35385;55.668;37.508;2024-01-07T03:14:55;99684.34;;;-18.80;100.00
36600;BME280;35385;55.668;37.508;2024-01-07T03:15:56;99686.19;;;-18.76;100.00
36600;BME280;35385;55.668;37.508;2024-01-07T03:16:56;99687.66;;;-18.83;100.00
36600;BME280;35385;55.668;37.508;2024-01-07T03:17:57;99690.44;;;-19.01;100.00
36600;BME280;35385;55.668;37.508;2024-01-07T03:18:57;99693.25;;;-18.93;100.00
36600;BME280;35385;55.668;37.508;2024-01-07T03:19:58;99687.47;;;-18.87;100.00
36600;BME280;35385;55.668;37.508;2024-01-07T03:20:59;99687.66;;;-18.83;100.00
36600;BME280;35385;55.668;37.508;2024-01-07T03:21:59;99683.66;;;-18.76;100.00
36600;BME280;35385;55.668;37.508;2024-01-07T03:23:00;99690.81;;;-18.90;100.00
36600;BME280;35385;55.668;37.508;2024-01-07T03:24:00;99688.91;;;-18.95;100.00
36600;BME280;35385;55.668;37.508;2024-01-07T03:25:01;99691.84;;;-19.09;100.00
36600;BME280;35385;55.668;37.508;2024-01-07T03:26:01;99693.16;;;-19.20;100.00
36600;BME280;35385;55.668;37.508;2024-01-07T03:27:02;99694.06;;;-19.18;100.00
36600;BME280;35385;55.668;37.508;2024-01-07T03:28:03;99698.94;;;-19.24;100.00
36600;BME280;35385;55.668;37.508;2024-01-07T03:29:03;99693.84;;;-19.24;100.00
36600;BME280;35385;55.668;37.508;2024-01-07T03:30:04;99695.72;;;-19.20;100.00
36600;BME280;35385;55.668;37.508;2024-01-07T03:31:07;99698.44;;;-19.14;100.00
36600;BME280;35385;55.668;37.508;2024-01-07T03:32:08;99702.84;;;-19.10;100.00
36600;BME280;35385;55.668;37.508;2024-01-07T03:33:08;99711.53;;;-19.05;100.00
36600;BME280;35385;55.668;37.508;2024-01-07T03:34:09;99710.00;;;-19.00;100.00
36600;BME280;35385;55.668;37.508;2024-01-07T03:35:09;99709.56;;;-19.12;100.00
36600;BME280;35385;55.668;37.508;2024-01-07T03:36:10;99715.75;;;-19.05;100.00
36600;BME280;35385;55.668;37.508;2024-01-07T03:37:11;99716.94;;;-19.19;100.00
36600;BME280;35385;55.668;37.508;2024-01-07T03:38:11;99722.13;;;-19.16;100.00
36600;BME280;35385;55.668;37.508;2024-01-07T03:39:12;99723.59;;;-19.23;100.00
36600;BME280;35385;55.668;37.508;2024-01-07T03:40:12;99721.06;;;-19.23;100.00
36600;BME280;35385;55.668;37.508;2024-01-07T03:41:19;99723.38;;;-19.29;100.00
36600;BME280;35385;55.668;37.508;2024-01-07T03:42:19;99721.44;;;-19.36;100.00
36600;BME280;35385;55.668;37.508;2024-01-07T03:43:20;99723.16;;;-19.35;100.00
36600;BME280;35385;55.668;37.508;2024-01-07T03:44:21;99728.31;;;-19.33;100.00
36600;BME280;35385;55.668;37.508;2024-01-07T03:45:21;99725.41;;;-19.20;100.00
36600;BME280;35385;55.668;37.508;2024-01-07T03:46:21;99728.19;;;-19.13;100.00
36600;BME280;35385;55.668;37.508;2024-01-07T03:47:22;99733.16;;;-19.40;100.00
36600;BME280;35385;55.668;37.508;2024-01-07T03:48:22;99733.63;;;-19.51;100.00
36600;BME280;35385;55.668;37.508;2024-01-07T03:49:23;99733.63;;;-19.51;100.00
36600;BME280;35385;55.668;37.508;2024-01-07T03:50:23;99740.53;;;-19.47;100.00
36600;BME280;35385;55.668;37.508;2024-01-07T03:51:24;99728.94;;;-19.39;100.00
36600;BME280;35385;55.668;37.508;2024-01-07T03:52:24;99654.59;;;-19.78;100.00
36600;BME280;35385;55.668;37.508;2024-01-07T03:53:24;99742.28;;;-19.22;100.00
36600;BME280;35385;55.668;37.508;2024-01-07T03:54:25;99736.66;;;-19.14;100.00
36600;BME280;35385;55.668;37.508;2024-01-07T03:55:25;99745.03;;;-19.16;100.00
36600;BME280;35385;55.668;37.508;2024-01-07T03:56:26;99746.09;;;-19.11;100.00
36600;BME280;35385;55.668;37.508;2024-01-07T03:57:26;99745.28;;;-19.10;100.00
36600;BME280;35385;55.668;37.508;2024-01-07T03:58:27;99753.59;;;-19.14;100.00
36600;BME280;35385;55.668;37.508;2024-01-07T03:59:27;99755.69;;;-19.04;100.00
36600;BME280;35385;55.668;37.508;2024-01-07T04:00:28;99756.81;;;-18.96;100.00
36600;BME280;35385;55.668;37.508;2024-01-07T04:01:28;99750.63;;;-19.03;100.00
36600;BME280;35385;55.668;37.508;2024-01-07T04:02:29;99751.66;;;-18.97;100.00
36600;BME280;35385;55.668;37.508;2024-01-07T04:03:29;99755.13;;;-19.19;100.00
36600;BME280;35385;55.668;37.508;2024-01-07T04:04:30;99749.31;;;-19.15;100.00
36600;BME280;35385;55.668;37.508;2024-01-07T04:05:30;99757.63;;;-19.21;100.00
36600;BME280;35385;55.668;37.508;2024-01-07T04:06:30;99762.16;;;-19.12;100.00
36600;BME280;35385;55.668;37.508;2024-01-07T04:07:31;99764.44;;;-19.20;100.00
36600;BME280;35385;55.668;37.508;2024-01-07T04:08:31;99761.78;;;-19.23;100.00
36600;BME280;35385;55.668;37.508;2024-01-07T04:09:32;99762.47;;;-19.27;100.00
36600;BME280;35385;55.668;37.508;2024-01-07T04:10:32;99764.22;;;-19.26;100.00
36600;BME280;35385;55.668;37.508;2024-01-07T04:11:32;99757.13;;;-19.34;100.00
36600;BME280;35385;55.668;37.508;2024-01-07T04:12:33;99761.97;;;-19.41;100.00
36600;BME280;35385;55.668;37.508;2024-01-07T04:13:33;99762.78;;;-19.42;100.00
36600;BME280;35385;55.668;37.508;2024-01-07T04:14:34;99763.09;;;-19.32;100.00
36600;BME280;35385;55.668;37.508;2024-01-07T04:15:34;99768.84;;;-19.38;100.00
36600;BME280;35385;55.668;37.508;2024-01-07T04:16:35;99770.16;;;-19.49;100.00
36600;BME280;35385;55.668;37.508;2024-01-07T04:17:35;99769.47;;;-19.67;100.00
36600;BME280;35385;55.668;37.508;2024-01-07T04:18:35;99773.75;;;-19.66;100.00
36600;BME280;35385;55.668;37.508;2024-01-07T04:19:37;99771.53;;;-19.57;100.00
36600;BME280;35385;55.668;37.508;2024-01-07T04:20:38;99762.44;;;-19.73;100.00
36600;BME280;35385;55.668;37.508;2024-01-07T04:21:38;99771.59;;;-19.78;100.00
36600;BME280;35385;55.668;37.508;2024-01-07T04:22:39;99769.41;;;-19.69;100.00
36600;BME280;35385;55.668;37.508;2024-01-07T04:23:39;99765.47;;;-19.61;100.00
36600;BME280;35385;55.668;37.508;2024-01-07T04:24:44;99773.22;;;-19.58;100.00
36600;BME280;35385;55.668;37.508;2024-01-07T04:25:44;99771.13;;;-19.68;100.00
36600;BME280;35385;55.668;37.508;2024-01-07T04:26:45;99766.00;;;-19.69;100.00
36600;BME280;35385;55.668;37.508;2024-01-07T04:27:45;99771.25;;;-19.65;100.00
36600;BME280;35385;55.668;37.508;2024-01-07T04:28:46;99781.72;;;-19.57;100.00
36600;BME280;35385;55.668;37.508;2024-01-07T04:29:46;99778.84;;;-19.66;100.00
36600;BME280;35385;55.668;37.508;2024-01-07T04:30:47;99787.47;;;-19.84;100.00
36600;BME280;35385;55.668;37.508;2024-01-07T04:31:48;99786.19;;;-19.95;100.00
36600;BME280;35385;55.668;37.508;2024-01-07T04:32:49;99784.44;;;-19.96;100.00
36600;BME280;35385;55.668;37.508;2024-01-07T04:33:49;99786.34;;;-19.90;100.00
36600;BME280;35385;55.668;37.508;2024-01-07T04:34:50;99789.03;;;-19.87;100.00
36600;BME280;35385;55.668;37.508;2024-01-07T04:35:50;99792.44;;;-19.87;100.00
36600;BME280;35385;55.668;37.508;2024-01-07T04:36:50;99792.69;;;-19.81;100.00
36600;BME280;35385;55.668;37.508;2024-01-07T04:37:51;99798.13;;;-19.72;100.00
36600;BME280;35385;55.668;37.508;2024-01-07T04:38:51;99793.16;;;-19.68;100.00
36600;BME280;35385;55.668;37.508;2024-01-07T04:39:52;99797.50;;;-19.66;100.00
36600;BME280;35385;55.668;37.508;2024-01-07T04:40:52;99793.50;;;-19.59;100.00
36600;BME280;35385;55.668;37.508;2024-01-07T04:41:53;99797.78;;;-19.58;100.00
36600;BME280;35385;55.668;37.508;2024-01-07T04:42:53;99801.19;;;-19.58;100.00
36600;BME280;35385;55.668;37.508;2024-01-07T04:43:54;99791.94;;;-19.56;100.00
36600;BME280;35385;55.668;37.508;2024-01-07T04:44:54;99807.28;;;-19.54;100.00
36600;BME280;35385;55.668;37.508;2024-01-07T04:45:55;99806.13;;;-19.62;100.00
36600;BME280;35385;55.668;37.508;2024-01-07T04:46:55;99808.38;;;-19.70;100.00
36600;BME280;35385;55.668;37.508;2024-01-07T04:47:56;99808.13;;;-19.76;100.00
36600;BME280;35385;55.668;37.508;2024-01-07T04:48:56;99817.31;;;-19.80;100.00
36600;BME280;35385;55.668;37.508;2024-01-07T04:49:57;99816.69;;;-19.95;100.00
36600;BME280;35385;55.668;37.508;2024-01-07T04:50:58;99819.41;;;-19.90;100.00
36600;BME280;35385;55.668;37.508;2024-01-07T04:51:58;99820.00;;;-19.77;100.00
36600;BME280;35385;55.668;37.508;2024-01-07T04:52:58;99825.06;;;-19.77;100.00
36600;BME280;35385;55.668;37.508;2024-01-07T04:53:59;99820.09;;;-19.74;100.00
36600;BME280;35385;55.668;37.508;2024-01-07T04:54:59;99814.06;;;-19.76;100.00
36600;BME280;35385;55.668;37.508;2024-01-07T04:56:00;99821.88;;;-19.71;100.00
36600;BME280;35385;55.668;37.508;2024-01-07T04:57:00;99815.59;;;-19.81;100.00
36600;BME280;35385;55.668;37.508;2024-01-07T04:58:00;99822.53;;;-19.77;100.00
36600;BME280;35385;55.668;37.508;2024-01-07T04:59:01;99825.88;;;-19.78;100.00
36600;BME280;35385;55.668;37.508;2024-01-07T05:00:02;99831.50;;;-19.85;100.00
36600;BME280;35385;55.668;37.508;2024-01-07T05:01:03;99828.09;;;-19.85;100.00
36600;BME280;35385;55.668;37.508;2024-01-07T05:02:04;99832.84;;;-19.94;100.00
36600;BME280;35385;55.668;37.508;2024-01-07T05:03:04;99834.63;;;-19.92;100.00
36600;BME280;35385;55.668;37.508;2024-01-07T05:04:05;99835.06;;;-19.81;100.00
36600;BME280;35385;55.668;37.508;2024-01-07T05:05:07;99835.47;;;-19.70;100.00
36600;BME280;35385;55.668;37.508;2024-01-07T05:06:10;99838.16;;;-19.67;100.00
36600;BME280;35385;55.668;37.508;2024-01-07T05:07:11;99834.88;;;-19.86;100.00
36600;BME280;35385;55.668;37.508;2024-01-07T05:08:11;99848.97;;;-19.94;100.00
36600;BME280;35385;55.668;37.508;2024-01-07T05:09:12;99841.25;;;-19.95;100.00